Time;durP1;ratioP1;P1;durP2;ratioP2;P2;SDS_P1;SDS_P2;PMS_P1;PMS_P2;Temp;Humidity;BMP_temperature;BMP_pressure;BME280_temperature;BME280_humidity;BME280_pressure;Samples;Min_cycle;Max_cycle;Signal;HPM_P1;HPM_P2
2022/06/20 00:01:22;;;;;;;8.90;1.83;;;;;;;18.83;49.85;101266.03;5101974;28;20047;-68
2022/06/20 00:03:50;;;;;;;7.72;2.00;;;;;;;18.84;49.93;101262.22;5100936;28;20257;-68
2022/06/20 00:06:20;;;;;;;8.10;2.20;;;;;;;18.81;49.87;101244.50;5094289;28;20075;-69
2022/06/20 00:08:51;;;;;;;9.05;2.13;;;;;;;18.76;49.84;101239.06;5100264;28;20493;-68
2022/06/20 00:11:21;;;;;;;10.43;2.00;;;;;;;18.79;50.00;101264.94;5095429;28;20070;-68
2022/06/20 00:13:54;;;;;;;10.43;2.78;;;;;;;18.79;49.99;101284.81;5100701;28;20071;-68
2022/06/20 00:16:23;;;;;;;9.35;2.58;;;;;;;18.74;50.03;101278.53;5098968;28;20154;-68
2022/06/20 00:18:53;;;;;;;7.25;2.10;;;;;;;18.78;49.96;101293.25;5098720;28;20044;-68
2022/06/20 00:21:23;;;;;;;11.07;3.03;;;;;;;18.76;50.01;101304.41;5100975;28;20047;-68
2022/06/20 00:23:52;;;;;;;10.75;2.95;;;;;;;18.76;50.08;101315.28;5100648;28;20055;-67
2022/06/20 00:26:20;;;;;;;12.90;3.17;;;;;;;18.77;50.01;101329.72;5101399;28;20047;-67
2022/06/20 00:28:48;;;;;;;10.60;2.63;;;;;;;18.77;49.85;101329.72;5097395;28;20068;-68
2022/06/20 00:31:17;;;;;;;8.43;2.78;;;;;;;18.77;49.95;101346.88;5098832;28;20044;-68
2022/06/20 00:33:45;;;;;;;8.85;2.75;;;;;;;18.76;49.91;101345.25;5100181;28;20067;-69
2022/06/20 00:36:13;;;;;;;5.78;2.03;;;;;;;18.76;49.84;101352.59;5093028;28;20044;-68
2022/06/20 00:38:43;;;;;;;10.00;2.63;;;;;;;18.75;49.88;101362.66;5103701;28;20048;-69
2022/06/20 00:41:17;;;;;;;8.88;2.08;;;;;;;18.65;49.73;101392.56;5095725;28;20044;-69
2022/06/20 00:43:49;;;;;;;8.43;2.08;;;;;;;18.76;49.91;101448.72;5092402;28;20044;-68
2022/06/20 00:46:27;;;;;;;6.82;2.75;;;;;;;18.75;49.86;101478.94;5101265;28;20127;-69
2022/06/20 00:49:01;;;;;;;11.20;2.22;;;;;;;18.75;49.71;101519.78;5103267;28;20051;-69
2022/06/20 00:51:35;;;;;;;9.68;2.38;;;;;;;18.73;49.63;101543.75;5095892;28;20048;-69
2022/06/20 00:54:11;;;;;;;11.65;3.38;;;;;;;18.74;49.56;101540.75;5097716;28;20100;-70
2022/06/20 00:56:50;;;;;;;11.15;2.20;;;;;;;18.72;49.76;101493.09;5097644;28;20158;-69
2022/06/20 00:59:24;;;;;;;7.00;2.70;;;;;;;18.73;49.64;101476.47;5096660;28;20040;-69
2022/06/20 01:01:54;;;;;;;11.63;3.10;;;;;;;18.71;49.68;101470.47;5100832;28;20052;-69
2022/06/20 01:04:27;;;;;;;6.78;2.60;;;;;;;18.73;49.74;101448.44;5101246;28;20390;-69
2022/06/20 01:06:57;;;;;;;9.02;2.50;;;;;;;18.65;49.52;101413.53;5095907;28;20415;-69
2022/06/20 01:09:34;;;;;;;7.53;2.03;;;;;;;18.68;49.73;101423.88;5100247;28;20072;-69
2022/06/20 01:12:03;;;;;;;8.35;2.28;;;;;;;18.70;49.74;101435.34;5097037;28;20048;-68
2022/06/20 01:14:35;;;;;;;5.90;2.42;;;;;;;18.70;49.74;101413.56;5093521;28;20075;-68
2022/06/20 01:17:07;;;;;;;6.70;2.10;;;;;;;18.62;49.70;101381.38;5099688;28;20058;-69
2022/06/20 01:19:44;;;;;;;10.40;2.35;;;;;;;18.66;49.73;101391.47;5098528;28;20365;-68
2022/06/20 01:22:24;;;;;;;6.30;2.03;;;;;;;18.67;49.76;101379.50;5094050;28;20063;-69
2022/06/20 01:25:02;;;;;;;10.77;3.08;;;;;;;18.67;49.67;101351.47;5095802;28;20056;-69
2022/06/20 01:27:35;;;;;;;10.43;2.03;;;;;;;18.65;49.58;101337.28;5091373;28;20048;-69
2022/06/20 01:30:03;;;;;;;10.35;2.97;;;;;;;18.64;49.91;101344.63;5093462;28;20052;-69
2022/06/20 01:32:32;;;;;;;6.88;2.88;;;;;;;18.62;49.75;101344.06;5094919;28;20048;-68
2022/06/20 01:35:02;;;;;;;7.97;2.60;;;;;;;18.61;49.68;101339.72;5098138;28;20068;-68
2022/06/20 01:37:34;;;;;;;6.00;2.40;;;;;;;18.60;49.71;101332.59;5097864;28;20078;-70
2022/06/20 01:40:12;;;;;;;5.93;2.10;;;;;;;18.55;49.77;101316.25;5093647;28;20048;-68
2022/06/20 01:42:43;;;;;;;6.72;1.92;;;;;;;18.56;49.91;101319.78;5087433;28;20345;-68
2022/06/20 01:47:55;;;;;;;5.75;2.00;;;;;;;18.53;50.05;101302.06;5089592;28;20051;-68
2022/06/20 01:50:24;;;;;;;6.53;2.25;;;;;;;18.52;50.30;101298.53;5100333;28;20076;-67
2022/06/20 01:52:52;;;;;;;5.15;1.95;;;;;;;18.51;50.39;101288.72;5100174;28;20056;-68
2022/06/20 01:55:25;;;;;;;7.57;2.00;;;;;;;18.50;50.52;101291.72;5098723;28;20044;-69
2022/06/20 01:58:00;;;;;;;6.57;1.70;;;;;;;18.48;50.51;101288.44;5100711;28;20055;-68
2022/06/20 02:00:27;;;;;;;7.28;2.65;;;;;;;18.46;50.75;101290.59;5099082;28;20044;-68
2022/06/20 02:02:58;;;;;;;6.88;2.45;;;;;;;18.37;50.89;101273.94;5100786;28;20063;-68
2022/06/20 02:05:29;;;;;;;8.13;2.40;;;;;;;18.42;50.96;101276.69;5101914;28;20066;-68
2022/06/20 02:08:00;;;;;;;6.28;1.88;;;;;;;18.40;51.21;101286.22;5101189;28;20048;-68
2022/06/20 02:10:32;;;;;;;10.70;2.45;;;;;;;18.38;51.17;101281.03;5099652;28;20121;-69
2022/06/20 02:13:03;;;;;;;8.85;2.45;;;;;;;18.39;50.95;101270.97;5100117;28;20076;-68
2022/06/20 02:15:33;;;;;;;7.65;2.10;;;;;;;18.37;51.17;101278.56;5102736;28;20052;-68
2022/06/20 02:18:05;;;;;;;8.15;2.20;;;;;;;18.35;51.09;101273.38;5103510;28;20052;-68
2022/06/20 02:20:45;;;;;;;10.95;2.80;;;;;;;18.35;51.22;101267.13;5103090;28;20048;-68
2022/06/20 02:23:15;;;;;;;8.50;2.20;;;;;;;18.18;51.26;101237.38;5104188;28;20047;-68
2022/06/20 02:25:46;;;;;;;6.00;2.55;;;;;;;18.31;51.27;101260.56;5096603;28;20086;-68
2022/06/20 02:28:21;;;;;;;11.65;2.30;;;;;;;18.24;51.17;101246.38;5098669;28;20044;-68
2022/06/20 02:30:49;;;;;;;8.40;2.03;;;;;;;18.29;51.12;101262.72;5098326;28;20056;-68
2022/06/20 02:33:25;;;;;;;9.95;2.80;;;;;;;18.25;51.34;101254.28;5102778;28;20083;-68
2022/06/20 02:35:54;;;;;;;10.95;2.45;;;;;;;18.18;51.34;101240.09;5096996;28;20048;-68
2022/06/20 02:38:22;;;;;;;7.25;2.38;;;;;;;18.24;51.42;101260.81;5106101;28;20051;-68
2022/06/20 02:40:52;;;;;;;9.85;2.42;;;;;;;18.23;51.43;101264.59;5099034;28;20052;-68
2022/06/20 02:43:25;;;;;;;9.93;2.25;;;;;;;18.22;51.42;101268.41;5101997;28;20074;-68
2022/06/20 02:45:55;;;;;;;8.60;2.35;;;;;;;18.13;51.45;101251.75;5102607;28;20153;-68
2022/06/20 02:48:26;;;;;;;8.25;2.55;;;;;;;18.22;51.29;101257.53;5096672;28;20040;-69
2022/06/20 02:50:57;;;;;;;7.75;2.65;;;;;;;18.19;51.36;101239.81;5101622;28;20048;-68
2022/06/20 02:53:34;;;;;;;9.68;2.60;;;;;;;18.20;51.15;101229.75;5095261;28;20045;-68
2022/06/20 02:56:02;;;;;;;;;;;;;;;18.20;51.13;101240.66;5099348;28;20051;-68
2022/06/20 02:58:34;;;;;;;16.52;2.45;;;;;;;18.17;51.26;101231.09;5095774;28;19935;-68
2022/06/20 03:01:08;;;;;;;6.88;2.10;;;;;;;18.17;50.80;101217.50;5096661;28;20037;-68
2022/06/20 03:03:40;;;;;;;7.53;1.90;;;;;;;18.15;51.02;101214.22;5099657;28;20051;-68
2022/06/20 03:06:25;;;;;;;8.60;2.10;;;;;;;18.14;51.00;101226.19;5093507;28;20063;-69
2022/06/20 03:08:54;;;;;;;5.35;1.88;;;;;;;18.13;50.92;101230.00;5100542;28;20048;-68
2022/06/20 03:11:22;;;;;;;6.78;2.17;;;;;;;18.08;50.89;101218.25;5099536;28;20051;-68
2022/06/20 03:13:53;;;;;;;8.70;2.28;;;;;;;18.10;51.21;101225.06;5099794;28;20562;-69
2022/06/20 03:16:22;;;;;;;8.13;2.00;;;;;;;18.09;51.06;101223.44;5097908;28;20069;-68
2022/06/20 03:18:51;;;;;;;7.70;2.05;;;;;;;18.09;51.14;101228.06;5108045;28;20300;-68
2022/06/20 03:21:24;;;;;;;5.93;1.92;;;;;;;18.01;51.13;101232.09;5101782;28;20071;-68
2022/06/20 03:23:52;;;;;;;4.18;1.60;;;;;;;18.08;51.15;101240.03;5100307;28;20086;-68
2022/06/20 03:26:23;;;;;;;6.35;2.05;;;;;;;18.08;51.10;101249.00;5099890;28;20044;-68
2022/06/20 03:28:53;;;;;;;7.43;2.10;;;;;;;18.08;51.04;101254.44;5099885;28;20077;-68
2022/06/20 03:31:22;;;;;;;7.25;2.38;;;;;;;18.00;51.00;101249.50;5101015;28;20078;-68
2022/06/20 03:33:49;;;;;;;6.93;1.85;;;;;;;18.04;51.21;101258.75;5100566;28;20054;-68
2022/06/20 03:36:23;;;;;;;7.97;2.20;;;;;;;17.97;50.95;101268.22;5098754;28;20051;-68
2022/06/20 03:38:52;;;;;;;4.78;2.05;;;;;;;18.02;51.16;101290.03;5089640;28;20083;-68
2022/06/20 03:41:23;;;;;;;6.88;2.40;;;;;;;18.00;51.05;101287.56;5097363;28;20143;-69
2022/06/20 03:43:57;;;;;;;8.50;2.15;;;;;;;17.98;51.26;101294.34;5101163;28;20044;-68
2022/06/20 03:46:30;;;;;;;7.07;2.20;;;;;;;17.96;51.29;101299.22;5096335;28;20449;-68
2022/06/20 03:49:04;;;;;;;8.10;2.10;;;;;;;17.94;51.40;101299.47;5101175;28;20075;-68
2022/06/20 03:51:38;;;;;;;9.55;2.28;;;;;;;17.93;51.41;101310.63;5104373;28;20044;-68
2022/06/20 03:54:09;;;;;;;8.32;1.95;;;;;;;17.93;51.34;101321.50;5103429;28;20087;-68
2022/06/20 03:56:48;;;;;;;7.47;1.92;;;;;;;17.92;51.48;101326.13;5097231;28;20457;-68
2022/06/20 03:59:25;;;;;;;10.00;2.50;;;;;;;17.89;51.50;101327.47;5097702;28;20048;-68
2022/06/20 04:01:58;;;;;;;6.68;1.77;;;;;;;17.83;51.45;101323.06;5095873;28;20329;-68
2022/06/20 04:04:32;;;;;;;8.10;2.05;;;;;;;17.88;51.42;101331.25;5099230;28;20172;-68
2022/06/20 04:07:04;;;;;;;12.52;2.67;;;;;;;17.87;51.53;101331.50;5100031;28;20154;-68
2022/06/20 04:12:24;;;;;;;6.18;1.67;;;;;;;17.87;51.39;101334.22;5099050;28;20083;-68
2022/06/20 04:14:58;;;;;;;8.27;2.47;;;;;;;17.86;51.45;101336.13;5100277;28;20363;-68
2022/06/20 04:20:26;;;;;;;5.82;1.90;;;;;;;17.82;51.19;101337.72;5101531;28;20040;-68
2022/06/20 04:22:55;;;;;;;4.15;1.88;;;;;;;17.84;51.39;101346.44;5097200;28;20482;-67
2022/06/20 04:25:38;;;;;;;6.85;1.92;;;;;;;17.84;51.53;101351.06;5100355;28;20036;-68
2022/06/20 04:28:16;;;;;;;4.90;1.85;;;;;;;17.84;51.45;101351.88;5099810;28;20055;-68
2022/06/20 04:30:49;;;;;;;6.30;2.03;;;;;;;17.84;51.42;101360.03;5091926;28;20048;-68
2022/06/20 04:33:24;;;;;;;4.40;1.70;;;;;;;17.84;51.09;101364.66;5097919;28;20044;-68
2022/06/20 04:36:14;;;;;;;6.82;1.90;;;;;;;17.83;51.67;101371.19;5097353;28;20070;-68
2022/06/20 04:38:49;;;;;;;6.60;2.67;;;;;;;17.83;51.66;101374.72;5101533;28;20040;-67
2022/06/20 04:41:35;;;;;;;5.57;1.80;;;;;;;17.82;51.63;101370.34;5095684;28;20043;-67
2022/06/20 04:44:10;;;;;;;6.88;2.15;;;;;;;17.83;51.56;101371.19;5102056;28;20083;-67
2022/06/20 04:46:45;;;;;;;10.15;2.47;;;;;;;17.81;51.46;101376.88;5097005;28;20076;-68
2022/06/20 04:49:17;;;;;;;9.18;2.30;;;;;;;17.81;51.65;101385.03;5093728;28;20040;-68
2022/06/20 04:51:48;;;;;;;7.25;1.90;;;;;;;17.82;51.66;101394.81;5094063;28;20056;-68
2022/06/20 04:54:20;;;;;;;8.68;2.53;;;;;;;17.82;51.89;101399.44;5094437;28;20040;-66
2022/06/20 04:56:50;;;;;;;5.57;1.90;;;;;;;17.81;51.83;101398.63;5095535;28;20048;-67
2022/06/20 04:59:20;;;;;;;6.22;2.10;;;;;;;17.81;52.01;101401.34;5100520;28;20048;-70
2022/06/20 05:01:50;;;;;;;7.20;1.88;;;;;;;17.81;51.83;101397.81;5099067;28;20052;-67
2022/06/20 05:04:31;;;;;;;8.00;2.17;;;;;;;17.81;51.71;101397.81;5101183;28;20485;-68
2022/06/20 05:07:02;;;;;;;5.43;2.10;;;;;;;17.80;51.92;101393.44;5098758;28;20047;-68
2022/06/20 05:09:39;;;;;;;6.43;2.10;;;;;;;17.80;52.00;101396.97;5104372;28;20105;-68
2022/06/20 05:12:14;;;;;;;8.65;1.85;;;;;;;17.80;51.98;101388.81;5099197;28;20084;-67
2022/06/20 05:14:48;;;;;;;7.35;2.30;;;;;;;17.81;52.20;101392.38;5100186;28;20087;-67
2022/06/20 05:17:22;;;;;;;9.45;2.38;;;;;;;17.80;52.09;101393.44;5101948;28;20142;-68
2022/06/20 05:19:56;;;;;;;6.00;1.95;;;;;;;17.73;52.13;101385.50;5102756;28;20044;-69
2022/06/20 05:22:28;;;;;;;9.40;2.53;;;;;;;17.80;52.19;101401.59;5103134;28;20048;-69
2022/06/20 05:24:59;;;;;;;6.38;2.22;;;;;;;17.78;52.23;101398.31;5100213;28;20059;-69
2022/06/20 05:27:30;;;;;;;6.22;2.40;;;;;;;17.78;52.46;101415.44;5100107;28;20036;-69
2022/06/20 05:30:01;;;;;;;5.68;1.85;;;;;;;17.78;52.35;101412.72;5098763;28;20087;-68
2022/06/20 05:32:37;;;;;;;7.75;2.45;;;;;;;17.78;52.34;101412.72;5106323;28;20062;-63
2022/06/20 05:35:09;;;;;;;7.93;1.63;;;;;;;17.79;52.36;101397.22;5105512;28;20052;-71
2022/06/20 05:37:43;;;;;;;9.82;2.13;;;;;;;17.71;52.28;101375.94;5096554;28;20044;-67
2022/06/20 05:40:17;;;;;;;6.63;2.22;;;;;;;17.75;52.45;101385.22;5105513;28;20048;-67
2022/06/20 05:42:45;;;;;;;8.50;2.65;;;;;;;17.73;52.63;101390.94;5099508;28;20048;-67
2022/06/20 05:45:15;;;;;;;7.57;2.05;;;;;;;17.75;52.59;101390.66;5103270;28;20044;-68
2022/06/20 05:47:48;;;;;;;4.47;1.77;;;;;;;17.75;52.70;101391.50;4746690;28;10000604;-65
2022/06/20 05:50:34;;;;;;;7.40;2.17;;;;;;;17.74;52.83;101394.47;5099351;28;20074;-66
2022/06/20 05:53:06;;;;;;;8.23;2.25;;;;;;;17.74;52.82;101397.19;5099355;28;20059;-67
2022/06/20 05:55:41;;;;;;;7.90;2.40;;;;;;;17.73;52.84;101400.97;5097333;28;20069;-65
2022/06/20 05:58:16;;;;;;;8.52;1.80;;;;;;;17.71;53.13;101394.97;5096324;28;20072;-66
2022/06/20 06:00:45;;;;;;;5.22;1.58;;;;;;;17.61;53.33;101384.78;5100491;28;20059;-65
2022/06/20 06:03:18;;;;;;;8.32;2.28;;;;;;;17.68;53.46;101400.94;5099974;28;20044;-66
2022/06/20 06:05:50;;;;;;;8.32;1.90;;;;;;;17.67;53.57;101389.22;5101244;28;20599;-65
2022/06/20 06:08:26;;;;;;;5.90;2.13;;;;;;;17.69;53.29;101388.97;5098195;28;20047;-67
2022/06/20 06:11:19;;;;;;;8.60;2.38;;;;;;;17.66;53.35;101381.34;5092280;28;20366;-66
2022/06/20 06:13:53;;;;;;;6.40;1.83;;;;;;;17.69;53.59;101397.94;5102191;28;20052;-66
2022/06/20 06:19:19;;;;;;;8.48;2.05;;;;;;;17.68;53.75;101396.31;5098444;28;20052;-63
2022/06/20 06:21:48;;;;;;;7.72;2.05;;;;;;;17.67;53.62;101402.00;5092541;28;20531;-64
2022/06/20 06:24:23;;;;;;;12.18;2.88;;;;;;;17.65;54.02;101399.50;5102315;28;20055;-63
2022/06/20 06:26:53;;;;;;;5.35;1.88;;;;;;;17.65;53.96;101415.81;5094610;28;20072;-63
2022/06/20 06:29:24;;;;;;;10.05;2.78;;;;;;;17.65;54.33;101409.56;5097139;28;20051;-63
2022/06/20 06:31:58;;;;;;;6.97;1.77;;;;;;;17.64;54.05;101402.47;5100793;28;20563;-62
2022/06/20 06:34:38;;;;;;;7.82;2.30;;;;;;;17.63;54.37;101411.72;5088075;28;20152;-62
2022/06/20 06:37:14;;;;;;;10.35;2.10;;;;;;;17.65;53.93;101415.81;5101830;28;20063;-62
2022/06/20 06:39:59;;;;;;;8.75;1.85;;;;;;;17.66;53.97;101424.81;5109422;28;20051;-63
2022/06/20 06:42:27;;;;;;;5.70;1.73;;;;;;;17.66;54.11;101422.94;5089749;28;20044;-64
2022/06/20 06:44:56;;;;;;;7.82;2.60;;;;;;;17.69;54.03;101430.56;5097837;28;20555;-63
2022/06/20 06:47:31;;;;;;;8.57;1.98;;;;;;;17.69;53.95;101441.44;5099761;28;20071;-61
2022/06/20 06:50:05;;;;;;;8.25;2.50;;;;;;;17.69;53.90;101441.44;5098127;28;20087;-61
2022/06/20 06:52:37;;;;;;;8.95;1.90;;;;;;;17.69;53.88;101446.88;5104402;28;20067;-61
2022/06/20 06:55:22;;;;;;;6.95;2.05;;;;;;;17.69;54.03;101443.34;5102540;28;20062;-61
2022/06/20 06:57:54;;;;;;;10.35;1.85;;;;;;;17.68;53.92;101439.81;5103950;28;20044;-61
2022/06/20 07:00:29;;;;;;;7.00;1.83;;;;;;;17.67;53.93;101445.50;5089582;28;20128;-66
2022/06/20 07:03:00;;;;;;;9.23;2.10;;;;;;;17.67;53.87;101445.50;5097450;28;20070;-62
2022/06/20 07:05:34;;;;;;;5.20;1.83;;;;;;;17.67;53.91;101462.63;5101767;28;20120;-64
2022/06/20 07:08:08;;;;;;;7.00;1.55;;;;;;;17.67;53.92;101453.66;5099847;28;20040;-63
2022/06/20 07:10:41;;;;;;;6.18;1.90;;;;;;;17.68;53.86;101464.28;5096320;28;20054;-63
2022/06/20 07:13:19;;;;;;;3.70;1.60;;;;;;;17.70;53.85;101469.47;5097426;28;20512;-62
2022/06/20 07:15:49;;;;;;;5.95;1.83;;;;;;;17.71;53.70;101460.22;5103089;28;20048;-62
2022/06/20 07:18:29;;;;;;;5.20;1.90;;;;;;;17.73;53.63;101471.66;5095904;28;20047;-62
2022/06/20 07:20:58;;;;;;;3.97;1.80;;;;;;;17.74;53.56;101470.59;5102977;28;20082;-62
2022/06/20 07:23:26;;;;;;;4.75;2.00;;;;;;;17.77;53.52;101478.25;5100314;28;20113;-62
2022/06/20 07:25:54;;;;;;;7.43;2.00;;;;;;;17.78;53.33;101474.44;5100196;28;20079;-63
2022/06/20 07:28:34;;;;;;;6.90;1.92;;;;;;;17.78;53.35;101471.72;5100034;28;20044;-62
2022/06/20 07:31:09;;;;;;;8.65;2.65;;;;;;;17.78;53.21;101472.53;5099663;28;20051;-63
2022/06/20 07:33:43;;;;;;;4.55;1.67;;;;;;;17.79;53.05;101471.47;5100153;28;20048;-63
2022/06/20 07:36:14;;;;;;;6.10;2.00;;;;;;;17.80;53.15;101470.41;5097562;28;20043;-63
2022/06/20 07:38:49;;;;;;;6.38;2.83;;;;;;;17.83;52.98;101472.59;5060114;28;20044;-62
2022/06/20 07:41:21;;;;;;;5.07;2.10;;;;;;;17.83;52.86;101472.59;5060491;28;20041;-61
2022/06/20 07:43:56;;;;;;;5.72;1.85;;;;;;;17.85;52.84;101488.66;5062052;28;20049;-64
2022/06/20 07:46:30;;;;;;;3.47;1.65;;;;;;;17.84;52.61;101481.59;5059871;28;20384;-61
2022/06/20 07:49:03;;;;;;;4.13;1.80;;;;;;;17.85;52.55;101483.22;5058533;28;20234;-62
2022/06/20 07:51:36;;;;;;;8.82;1.67;;;;;;;17.84;52.52;101478.88;5062918;28;20076;-62
2022/06/20 07:54:10;;;;;;;6.60;2.03;;;;;;;17.85;52.45;101485.94;5062060;28;20461;-60
2022/06/20 07:56:42;;;;;;;4.13;1.60;;;;;;;17.83;52.38;101486.19;5052486;28;20130;-63
2022/06/20 07:59:13;;;;;;;4.38;1.52;;;;;;;17.85;52.36;101485.94;5062926;28;20044;-66
2022/06/20 08:01:47;;;;;;;4.22;1.50;;;;;;;17.84;52.34;101493.28;5061284;28;20040;-65
2022/06/20 08:04:19;;;;;;;6.50;2.05;;;;;;;17.87;52.19;101489.22;5061357;28;20049;-65
2022/06/20 08:06:54;;;;;;;4.22;1.40;;;;;;;17.90;52.28;101488.72;5062194;28;20052;-66
2022/06/20 08:09:27;;;;;;;4.43;1.60;;;;;;;17.93;52.26;101487.38;5061809;28;20041;-65
2022/06/20 08:12:00;;;;;;;5.53;1.60;;;;;;;17.95;52.20;101491.50;5061725;28;20076;-65
2022/06/20 08:14:36;;;;;;;5.35;1.80;;;;;;;17.97;52.04;101492.06;5062355;28;20044;-65
2022/06/20 08:17:08;;;;;;;5.90;1.52;;;;;;;17.98;51.70;101490.16;5061448;28;20079;-65
2022/06/20 08:19:39;;;;;;;4.35;1.83;;;;;;;18.01;51.63;101495.09;5062237;28;20067;-65
2022/06/20 08:22:14;;;;;;;6.05;2.30;;;;;;;18.01;51.25;101493.19;5061685;28;20044;-66
2022/06/20 08:24:48;;;;;;;5.60;1.73;;;;;;;18.02;51.16;101491.31;5061642;28;20494;-64
2022/06/20 08:27:24;;;;;;;6.72;1.75;;;;;;;18.04;50.73;101494.59;5062153;28;20075;-62
2022/06/20 08:29:56;;;;;;;;;;;;;;;18.03;50.43;101487.50;5062687;28;20045;-63
2022/06/20 08:32:33;;;;;;;6.50;1.90;;;;;;;18.01;49.66;101501.34;5061991;28;20276;-66
2022/06/20 08:35:10;;;;;;;3.53;1.92;;;;;;;18.00;49.77;101496.16;5060367;28;20045;-65
2022/06/20 08:37:44;;;;;;;5.70;2.08;;;;;;;18.00;49.86;101497.00;5077424;28;20075;-66
2022/06/20 08:40:35;;;;;;;3.80;1.90;;;;;;;17.99;49.79;101498.06;5103672;28;20044;-67
2022/06/20 08:43:24;;;;;;;6.00;1.48;;;;;;;18.01;49.83;101501.34;5091629;28;20059;-65
2022/06/20 08:46:34;;;;;;;6.50;1.55;;;;;;;18.07;49.38;101502.22;5101886;28;20066;-64
2022/06/20 08:49:38;;;;;;;3.75;1.60;;;;;;;18.12;49.60;101516.72;5076076;28;20093;-65
2022/06/20 08:52:38;;;;;;;6.57;2.28;;;;;;;18.10;49.47;101508.00;5100805;28;20153;-65
2022/06/20 08:55:34;;;;;;;4.47;1.45;;;;;;;18.16;49.64;101517.03;5102445;28;20052;-65
2022/06/20 08:58:11;;;;;;;9.73;2.00;;;;;;;18.16;49.55;101531.44;5097228;28;20040;-65
2022/06/20 09:00:46;;;;;;;4.80;1.80;;;;;;;18.18;49.57;101528.47;5097339;28;20080;-64
2022/06/20 09:03:32;;;;;;;4.57;1.88;;;;;;;18.17;49.62;101533.09;5097675;28;20079;-65
2022/06/20 09:06:35;;;;;;;5.80;1.63;;;;;;;18.16;49.42;101538.78;5100684;28;20055;-66
2022/06/20 09:09:22;;;;;;;4.63;1.63;;;;;;;18.15;49.32;101537.97;5090361;28;20321;-64
2022/06/20 09:12:21;;;;;;;5.18;2.15;;;;;;;18.14;49.14;101536.31;5097638;28;20288;-66
2022/06/20 09:15:03;;;;;;;5.10;1.80;;;;;;;18.15;49.37;101535.25;5105374;28;20052;-64
2022/06/20 09:17:42;;;;;;;3.15;1.77;;;;;;;18.16;49.03;101531.44;5103403;28;20563;-66
2022/06/20 09:20:22;;;;;;;7.13;1.88;;;;;;;18.18;48.92;101536.63;5103136;28;20044;-64
2022/06/20 09:23:12;;;;;;;6.68;1.85;;;;;;;18.07;48.61;101522.09;5101918;28;20062;-64
2022/06/20 09:25:53;;;;;;;7.45;1.98;;;;;;;18.19;48.71;101538.28;5105004;28;20109;-64
2022/06/20 09:28:44;;;;;;;9.05;2.63;;;;;;;18.20;48.45;101548.91;5094130;28;20089;-63
2022/06/20 09:31:29;;;;;;;5.13;1.83;;;;;;;18.16;48.19;101545.06;5102723;28;20044;-63
2022/06/20 09:34:22;;;;;;;5.00;1.70;;;;;;;18.18;47.80;101548.34;5101444;28;20047;-63
2022/06/20 09:37:12;;;;;;;4.50;1.60;;;;;;;18.19;47.79;101546.44;5101658;28;20128;-62
2022/06/20 09:39:50;;;;;;;5.97;2.00;;;;;;;18.17;48.06;101543.97;5104756;28;20040;-62
2022/06/20 09:42:27;;;;;;;3.83;1.67;;;;;;;18.19;47.79;101544.53;4738840;28;10000669;-61
2022/06/20 09:45:09;;;;;;;5.90;1.95;;;;;;;18.21;47.67;101545.09;5096876;28;20068;-63
2022/06/20 09:47:49;;;;;;;3.55;1.60;;;;;;;18.23;47.70;101541.31;5102159;28;20059;-62
2022/06/20 09:50:33;;;;;;;6.15;2.28;;;;;;;18.24;47.82;101543.78;5101563;28;20055;-63
2022/06/20 09:53:13;;;;;;;3.50;1.55;;;;;;;18.30;48.70;101541.94;5098585;28;20138;-62
2022/06/20 09:55:51;;;;;;;5.47;1.95;;;;;;;18.31;48.44;101546.28;5099405;28;20206;-64
2022/06/20 09:58:27;;;;;;;3.22;1.65;;;;;;;18.33;48.14;101546.84;5101112;28;20107;-62
2022/06/20 10:01:07;;;;;;;3.90;1.92;;;;;;;18.34;48.04;101543.88;5091979;28;20052;-62
2022/06/20 10:03:43;;;;;;;8.02;2.30;;;;;;;18.34;48.19;101554.78;5099684;28;20054;-63
2022/06/20 10:06:22;;;;;;;4.65;1.92;;;;;;;18.36;48.02;101549.06;5104328;28;20040;-64
2022/06/20 10:08:59;;;;;;;5.25;2.05;;;;;;;18.38;48.07;101553.19;5096863;28;20219;-63
2022/06/20 10:11:34;;;;;;;4.45;2.15;;;;;;;18.38;48.46;101547.72;5091732;28;20071;-63
2022/06/20 10:14:11;;;;;;;5.53;1.65;;;;;;;18.44;48.34;101543.16;5091206;28;20385;-62
2022/06/20 10:16:48;;;;;;;4.53;2.17;;;;;;;18.48;48.20;101541.56;5102966;28;20485;-63
2022/06/20 10:19:20;;;;;;;7.65;2.40;;;;;;;18.45;47.91;101542.09;5104015;28;20063;-63
2022/06/20 10:21:56;;;;;;;11.70;2.47;;;;;;;18.50;47.59;101553.03;5094196;28;20417;-62
2022/06/20 10:25:00;;;;;;;4.30;2.20;;;;;;;18.51;47.00;101552.75;5100315;28;20041;-65
2022/06/20 10:27:57;;;;;;;6.35;2.42;;;;;;;18.54;47.19;101559.59;5095856;28;20524;-66
2022/06/20 10:30:40;;;;;;;7.43;2.30;;;;;;;18.54;47.53;101557.69;5101966;28;20044;-66
2022/06/20 10:33:22;;;;;;;5.63;2.60;;;;;;;18.58;47.24;101558.00;5098406;28;20047;-66
2022/06/20 10:35:59;;;;;;;6.47;2.10;;;;;;;18.61;47.22;101560.25;5103449;28;20052;-66
2022/06/20 10:38:38;;;;;;;7.03;2.20;;;;;;;18.65;47.95;101555.94;5098582;28;20049;-66
2022/06/20 10:41:09;;;;;;;6.30;2.30;;;;;;;18.68;47.73;101563.56;5100153;28;20067;-66
2022/06/20 10:43:46;;;;;;;6.45;2.63;;;;;;;18.69;47.16;101575.28;5102279;28;20043;-67
2022/06/20 10:46:24;;;;;;;3.70;2.55;;;;;;;18.67;46.64;101570.09;5095782;28;20058;-66
2022/06/20 10:49:17;;;;;;;6.38;2.05;;;;;;;18.74;47.09;101576.16;5101591;28;20048;-66
2022/06/20 10:51:54;;;;;;;4.90;2.38;;;;;;;18.76;47.35;101574.00;5098158;28;20086;-66
2022/06/20 10:54:36;;;;;;;6.28;2.33;;;;;;;18.79;46.68;101572.66;5102863;28;20044;-66
2022/06/20 10:57:14;;;;;;;7.47;2.90;;;;;;;18.82;46.49;101583.03;5099107;28;20139;-67
2022/06/20 10:59:52;;;;;;;7.15;2.70;;;;;;;18.84;47.10;101587.16;5091348;28;20346;-66
2022/06/20 11:02:33;;;;;;;7.03;2.60;;;;;;;18.86;46.63;101597.78;5098716;28;20051;-66
2022/06/20 11:05:10;;;;;;;5.88;1.92;;;;;;;18.94;47.68;101589.13;5094017;28;20056;-67
2022/06/20 11:07:49;;;;;;;8.52;2.22;;;;;;;18.93;46.64;101592.13;5098223;28;20047;-66
2022/06/20 11:10:30;;;;;;;7.22;2.28;;;;;;;18.96;46.20;101602.50;5095031;28;20043;-66
2022/06/20 11:13:08;;;;;;;6.90;2.90;;;;;;;18.98;46.45;101597.63;5100672;28;20048;-66
2022/06/20 11:15:46;;;;;;;8.93;2.53;;;;;;;18.98;46.09;101598.44;5100928;28;20055;-66
2022/06/20 11:18:44;;;;;;;9.90;2.45;;;;;;;18.97;45.27;101607.69;5092777;28;20135;-66
2022/06/20 11:21:21;;;;;;;10.45;2.92;;;;;;;18.95;45.50;101609.84;5092669;28;20084;-66
2022/06/20 11:23:58;;;;;;;7.90;2.58;;;;;;;18.98;45.61;101611.22;5101902;28;20048;-66
2022/06/20 11:26:36;;;;;;;8.30;2.03;;;;;;;18.99;45.73;101605.53;5092720;28;20374;-66
2022/06/20 11:29:36;;;;;;;6.63;2.47;;;;;;;19.01;45.69;101603.38;5085131;28;20144;-66
2022/06/20 11:32:19;;;;;;;6.80;2.17;;;;;;;18.99;45.95;101581.00;5100617;28;20062;-67
2022/06/20 11:35:15;;;;;;;9.50;2.53;;;;;;;19.07;45.22;101590.56;5106506;28;20048;-66
2022/06/20 11:38:11;;;;;;;7.22;2.60;;;;;;;19.09;45.20;101600.13;5086300;28;20052;-66
2022/06/20 11:40:48;;;;;;;7.72;2.20;;;;;;;19.09;44.85;101600.13;5093973;28;20041;-66
2022/06/20 11:43:37;;;;;;;7.22;2.08;;;;;;;19.09;45.09;101594.69;5101371;28;20048;-66
2022/06/20 11:46:21;;;;;;;6.30;2.38;;;;;;;19.16;46.09;101598.00;5103137;28;20056;-66
2022/06/20 11:49:02;;;;;;;10.70;2.40;;;;;;;19.18;45.25;101581.41;5102115;28;20072;-67
2022/06/20 11:51:41;;;;;;;8.10;2.38;;;;;;;19.21;45.44;101582.78;5100475;28;20100;-67
2022/06/20 11:54:21;;;;;;;4.90;2.10;;;;;;;19.22;45.86;101570.78;5103545;28;20069;-66
2022/06/20 11:56:55;;;;;;;9.38;2.38;;;;;;;19.30;45.72;101584.75;5101178;28;20043;-66
2022/06/20 11:59:30;;;;;;;3.90;1.73;;;;;;;19.34;45.68;101574.16;5101591;28;20048;-66
2022/06/20 12:02:05;;;;;;;5.88;2.38;;;;;;;19.38;45.67;101578.81;5093429;28;20150;-67
2022/06/20 12:04:38;;;;;;;6.43;1.98;;;;;;;19.41;44.58;101583.75;5099959;28;20047;-67
2022/06/20 12:07:34;;;;;;;7.43;2.20;;;;;;;19.38;44.58;101570.63;5096578;28;20052;-67
2022/06/20 12:10:19;;;;;;;7.27;2.03;;;;;;;19.40;44.35;101581.28;5095584;28;20489;-68
2022/06/20 12:12:56;;;;;;;7.95;2.38;;;;;;;19.39;44.27;101577.72;5101300;28;20059;-67
2022/06/20 12:15:35;;;;;;;7.07;2.63;;;;;;;19.38;44.53;101575.25;5101455;28;20055;-67